METAR Data
IDs: Format: Raw Decoded Include TAF

Data at: 0803 UTC 08 May 2021

KRTS 080755Z AUTO 34012KT 10SM CLR 07/M11 A3019 RMK AO2
KRTS 080735Z AUTO 34016KT 10SM CLR 09/M12 A3018 RMK AO2
KRTS 080715Z AUTO 31012KT 10SM CLR 09/M13 A3017 RMK AO2
KRTS 080655Z AUTO 28003G10KT 10SM CLR 09/M13 A3017 RMK AO2
KRTS 080635Z AUTO 24005G11KT 10SM CLR 09/M13 A3017 RMK AO2
KRTS 080615Z AUTO 27006G13KT 10SM CLR 08/M14 A3016 RMK AO2
KRTS 080555Z AUTO 29011KT 10SM FEW065 09/M14 A3016 RMK AO2
KRTS 080535Z AUTO 32010KT 10SM BKN065 10/M15 A3016 RMK AO2
KRTS 080515Z AUTO 32009G16KT 10SM BKN060 10/M15 A3016 RMK AO2
KRTS 080455Z AUTO 35016KT 10SM CLR 11/M15 A3014 RMK AO2
KRTS 080435Z AUTO 34022KT 10SM FEW060 11/M15 A3012 RMK AO2
KRTS 080415Z AUTO 35016KT 10SM BKN060 BKN080 12/M15 A3012 RMK AO2
KRTS 080355Z AUTO 35017KT 10SM SCT065 SCT080 12/M15 A3010 RMK AO2
KRTS 080335Z AUTO 35019G25KT 10SM FEW070 SCT080 13/M15 A3009 RMK AO2
KRTS 080315Z AUTO 35020KT 10SM CLR 13/M13 A3008 RMK AO2
KRTS 080255Z AUTO 35022KT 10SM CLR 14/M12 A3007 RMK AO2
KRTS 080235Z AUTO 35020KT 10SM FEW090 15/M10 A3006 RMK AO2
KRTS 080215Z AUTO 34019G26KT 10SM FEW090 15/M06 A3005 RMK AO2